Time;durP1;ratioP1;P1;durP2;ratioP2;P2;SDS_P1;SDS_P2;PMS_P1;PMS_P2;Temp;Humidity;BMP_temperature;BMP_pressure;BME280_temperature;BME280_humidity;BME280_pressure;Samples;Min_cycle;Max_cycle;Signal;HPM_P1;HPM_P2
2022/07/24 00:00:50;;;;;;;10.20;5.70;;;20.60;96.40;;;21.50;92.56;98493.53;5061977;28;20551;-78
2022/07/24 00:03:21;;;;;;;8.57;5.37;;;20.50;96.60;;;21.44;92.76;98494.53;5063387;28;20862;-78
2022/07/24 00:05:57;;;;;;;9.10;5.40;;;20.40;96.60;;;21.37;94.01;98497.38;5059343;28;20484;-78
2022/07/24 00:08:29;;;;;;;7.87;5.30;;;20.40;96.80;;;21.36;94.07;98500.28;5060615;28;20763;-78
2022/07/24 00:10:59;;;;;;;7.63;5.10;;;20.30;96.80;;;21.34;93.54;98497.06;5059275;28;20826;-78
2022/07/24 00:13:30;;;;;;;12.77;5.60;;;20.30;96.70;;;21.31;93.98;98497.56;5058845;28;21708;-78
2022/07/24 00:16:01;;;;;;;8.80;5.87;;;20.30;96.80;;;21.23;94.35;98490.78;5059852;28;20536;-78
2022/07/24 00:18:31;;;;;;;8.80;5.23;;;20.30;96.80;;;21.12;95.62;98494.34;5062697;28;20492;-78
2022/07/24 00:21:00;;;;;;;9.40;5.60;;;20.20;96.90;;;21.11;95.46;98491.91;5059372;28;20553;-79
2022/07/24 00:23:29;;;;;;;8.23;5.43;;;20.20;96.80;;;21.09;96.10;98489.47;5061286;28;20449;-78
2022/07/24 00:26:00;;;;;;;10.60;5.20;;;20.20;97.00;;;21.03;96.32;98491.25;5063287;28;20465;-78
2022/07/24 00:28:31;;;;;;;8.67;5.90;;;20.10;97.20;;;20.94;96.82;98491.91;5059793;28;20518;-78
2022/07/24 00:31:02;;;;;;;9.50;5.50;;;20.00;97.30;;;20.90;97.37;98490.75;5059868;28;20433;-78
2022/07/24 00:33:32;;;;;;;12.97;5.50;;;20.00;97.30;;;20.86;97.25;98500.28;5062706;28;20819;-78
2022/07/24 00:36:03;;;;;;;7.10;5.40;;;19.90;97.30;;;20.81;98.33;98493.03;5062057;28;20460;-78
2022/07/24 00:38:33;;;;;;;12.73;5.80;;;19.90;97.50;;;20.75;98.97;98490.53;5060885;28;21205;-79
2022/07/24 00:41:04;;;;;;;8.07;5.30;;;19.70;97.50;;;20.69;99.12;98499.50;5059372;28;20571;-78
2022/07/24 00:43:35;;;;;;;7.50;5.80;;;19.70;97.60;;;20.68;99.25;98492.53;5059643;28;20521;-78
2022/07/24 00:46:05;;;;;;;8.23;5.40;;;19.80;97.40;;;20.68;99.70;98496.00;5057760;28;20489;-78
2022/07/24 00:48:36;;;;;;;8.23;5.97;;;19.70;97.70;;;20.66;100.00;98489.31;5059744;28;20467;-78
2022/07/24 00:51:08;;;;;;;6.77;5.33;;;19.60;97.80;;;20.64;99.66;98486.09;5061628;28;20460;-78
2022/07/24 00:53:39;;;;;;;8.83;5.57;;;19.60;97.70;;;20.58;100.00;98488.66;5058984;28;20459;-78
2022/07/24 00:56:10;;;;;;;5.30;4.80;;;19.60;97.90;;;20.52;100.00;98488.81;5060538;28;20475;-78
2022/07/24 00:58:41;;;;;;;8.37;6.30;;;19.50;97.80;;;20.50;100.00;98490.91;5060269;28;21020;-78
2022/07/24 01:01:11;;;;;;;8.10;5.60;;;19.30;98.10;;;20.48;100.00;98485.81;5060824;28;20530;-78
2022/07/24 01:03:41;;;;;;;7.00;5.50;;;19.30;98.20;;;20.41;100.00;98484.38;5059147;28;20552;-78
2022/07/24 01:06:13;;;;;;;7.37;5.90;;;19.40;98.00;;;20.31;100.00;98485.00;5060516;28;20459;-78
2022/07/24 01:08:44;;;;;;;8.70;6.23;;;19.30;97.90;;;20.27;100.00;98488.34;5056557;28;20472;-78
2022/07/24 01:11:14;;;;;;;7.40;5.83;;;19.20;98.10;;;20.28;100.00;98490.78;5058782;28;20959;-78
2022/07/24 01:13:44;;;;;;;14.70;6.50;;;19.30;98.00;;;20.21;100.00;98487.44;5056243;28;21055;-78
2022/07/24 01:16:14;;;;;;;6.43;5.40;;;19.30;98.00;;;20.18;100.00;98497.72;5057391;28;20460;-78
2022/07/24 01:18:46;;;;;;;8.00;5.90;;;19.30;97.90;;;20.15;100.00;98492.91;5057249;28;20513;-78
2022/07/24 01:21:17;;;;;;;7.70;5.83;;;19.20;98.30;;;20.11;100.00;98497.88;5055921;28;20480;-78
2022/07/24 01:23:47;;;;;;;6.03;5.23;;;19.10;98.10;;;20.09;100.00;98492.81;5057214;28;20479;-78
2022/07/24 01:26:17;;;;;;;6.17;5.40;;;19.10;98.20;;;20.04;100.00;98497.19;5060373;28;20455;-78
2022/07/24 01:28:46;;;;;;;7.73;5.70;;;19.00;98.30;;;20.00;100.00;98499.53;5063229;28;20456;-79
2022/07/24 01:31:17;;;;;;;11.63;5.90;;;19.00;98.20;;;19.97;100.00;98497.34;5059132;28;20514;-78
2022/07/24 01:33:47;;;;;;;10.10;6.30;;;19.00;98.10;;;19.86;100.00;98503.50;5057697;28;20473;-78
2022/07/24 01:36:18;;;;;;;19.23;5.83;;;19.10;98.00;;;19.80;100.00;98491.16;5061072;28;20461;-78
2022/07/24 01:38:48;;;;;;;8.40;6.10;;;18.90;98.30;;;19.80;100.00;98496.47;5059038;28;20457;-78
2022/07/24 01:41:20;;;;;;;7.23;5.60;;;18.90;98.20;;;19.80;100.00;98487.69;5057614;28;20539;-79
2022/07/24 01:43:50;;;;;;;9.33;6.07;;;18.90;98.50;;;19.77;100.00;98493.47;5056895;28;20460;-78
2022/07/24 01:46:20;;;;;;;7.47;5.60;;;18.80;98.50;;;19.77;100.00;98485.50;5057188;28;20940;-78
2022/07/24 01:48:49;;;;;;;9.70;6.00;;;18.70;98.50;;;19.73;100.00;98490.50;5058916;28;20473;-78
2022/07/24 01:51:21;;;;;;;6.47;5.30;;;18.60;98.50;;;19.67;100.00;98493.28;5057469;28;20464;-78
2022/07/24 01:53:52;;;;;;;13.13;6.27;;;18.70;98.50;;;19.62;100.00;98491.31;5057757;28;20449;-78
2022/07/24 01:56:23;;;;;;;9.17;6.27;;;18.60;98.70;;;19.55;100.00;98486.13;5057700;28;20512;-79
2022/07/24 01:58:56;;;;;;;8.03;5.90;;;18.50;98.90;;;19.51;100.00;98498.25;5062062;28;20456;-78
2022/07/24 02:01:26;;;;;;;8.47;6.37;;;18.50;99.10;;;19.48;100.00;98496.06;5059714;28;21023;-78
2022/07/24 02:03:57;;;;;;;7.03;5.37;;;18.50;99.00;;;19.45;100.00;98488.56;5054471;28;20492;-78
2022/07/24 02:06:28;;;;;;;6.73;5.00;;;18.50;98.80;;;19.38;100.00;98492.34;5058902;28;20466;-78
2022/07/24 02:08:59;;;;;;;8.77;5.60;;;18.40;98.90;;;19.34;100.00;98485.91;5061963;28;20472;-78
2022/07/24 02:11:30;;;;;;;8.90;5.83;;;18.40;99.10;;;19.33;100.00;98492.25;5053946;28;20461;-78
2022/07/24 02:14:00;;;;;;;7.80;6.00;;;18.30;99.20;;;19.29;100.00;98494.56;5055575;28;20449;-78
2022/07/24 02:16:30;;;;;;;6.87;5.47;;;18.20;99.30;;;19.26;100.00;98489.72;5057445;28;20473;-77
2022/07/24 02:19:01;;;;;;;11.13;5.77;;;18.30;99.10;;;19.26;100.00;98492.38;5058675;28;20461;-78
2022/07/24 02:21:33;;;;;;;8.90;5.90;;;18.20;99.50;;;19.28;100.00;98495.59;5055720;28;20504;-78
2022/07/24 02:24:02;;;;;;;6.50;5.80;;;18.20;99.40;;;19.28;100.00;98492.94;5056516;28;20454;-78
2022/07/24 02:26:33;;;;;;;7.83;6.17;;;18.20;99.30;;;19.27;100.00;98496.63;5057528;28;20458;-79
2022/07/24 02:29:01;;;;;;;6.70;5.20;;;18.20;99.40;;;19.25;100.00;98496.06;5056329;28;20528;-78
2022/07/24 02:31:32;;;;;;;6.10;5.33;;;18.20;99.20;;;19.18;100.00;98492.72;5056781;28;20464;-78
2022/07/24 02:34:02;;;;;;;7.13;5.87;;;18.10;99.50;;;19.12;100.00;98495.50;5056254;28;20518;-78
2022/07/24 02:36:33;;;;;;;9.20;6.40;;;18.00;99.40;;;19.08;100.00;98490.66;5054781;28;20460;-79
2022/07/24 02:39:03;;;;;;;7.87;5.60;;;18.00;99.50;;;19.10;100.00;98491.22;5057949;28;20469;-78
2022/07/24 02:41:34;;;;;;;7.20;5.67;;;18.00;99.60;;;19.11;100.00;98494.69;5054891;28;20504;-78
2022/07/24 02:44:05;;;;;;;9.10;5.23;;;18.00;99.50;;;19.04;100.00;98491.34;5057346;28;20495;-78
2022/07/24 02:46:35;;;;;;;11.20;5.73;;;18.10;99.20;;;18.95;100.00;98492.72;5054646;28;20607;-78
2022/07/24 02:49:07;;;;;;;6.83;5.13;;;18.00;99.60;;;18.89;100.00;98493.63;5056667;28;20458;-78
2022/07/24 02:51:39;;;;;;;6.70;6.00;;;17.90;99.50;;;18.87;100.00;98495.69;5055062;28;20469;-77
2022/07/24 02:54:09;;;;;;;7.30;6.13;;;18.00;99.40;;;18.88;100.00;98498.09;5054047;28;20953;-78
2022/07/24 02:56:38;;;;;;;6.97;5.73;;;17.90;99.60;;;18.87;100.00;98498.34;5056560;28;20491;-78
2022/07/24 02:59:08;;;;;;;7.83;5.30;;;17.90;99.30;;;18.82;100.00;98499.03;5058558;28;20471;-78
2022/07/24 03:01:38;;;;;;;8.37;6.00;;;17.80;99.50;;;18.74;100.00;98504.69;5058426;28;20515;-78
2022/07/24 03:04:08;;;;;;;9.33;5.83;;;17.80;99.70;;;18.70;100.00;98500.06;5056213;28;20489;-78
2022/07/24 03:06:39;;;;;;;7.87;5.83;;;17.70;99.70;;;18.67;100.00;98496.03;5059222;28;20457;-78
2022/07/24 03:09:10;;;;;;;9.23;6.23;;;17.70;99.90;;;18.67;100.00;98498.69;5058685;28;20473;-78
2022/07/24 03:11:40;;;;;;;8.90;5.73;;;17.80;99.50;;;18.67;100.00;98500.50;5059752;28;20464;-78
2022/07/24 03:14:11;;;;;;;8.10;6.07;;;17.70;99.60;;;18.58;100.00;98497.38;5057247;28;20503;-78
2022/07/24 03:16:41;;;;;;;6.50;4.80;;;17.60;99.90;;;18.48;100.00;98486.50;5057385;28;20465;-78
2022/07/24 03:19:12;;;;;;;6.50;5.70;;;17.60;99.80;;;18.44;100.00;98494.09;5058003;28;20451;-78
2022/07/24 03:21:45;;;;;;;9.63;6.30;;;17.50;99.90;;;18.43;100.00;98494.31;5058375;28;20601;-78
2022/07/24 03:24:17;;;;;;;18.33;6.03;;;17.40;99.90;;;18.47;100.00;98493.63;5057769;28;20475;-78
2022/07/24 03:26:47;;;;;;;7.87;5.83;;;17.40;99.90;;;18.45;100.00;98493.06;5057379;28;20479;-78
2022/07/24 03:29:17;;;;;;;7.00;5.63;;;17.50;99.90;;;18.42;100.00;98488.22;5058702;28;20461;-78
2022/07/24 03:31:47;;;;;;;8.57;6.10;;;17.50;99.90;;;18.34;100.00;98479.78;5058800;28;20868;-78
2022/07/24 03:34:17;;;;;;;12.00;6.17;;;17.40;99.90;;;18.30;100.00;98492.66;5057629;28;20473;-78
2022/07/24 03:36:49;;;;;;;10.03;5.93;;;17.30;99.90;;;18.26;100.00;98488.03;5053184;28;21202;-79
2022/07/24 03:39:19;;;;;;;6.70;5.27;;;17.30;99.90;;;18.23;100.00;98491.94;5053738;28;20456;-78
2022/07/24 03:41:49;;;;;;;9.00;5.90;;;17.30;99.90;;;18.23;100.00;98497.22;5055802;28;20530;-78
2022/07/24 03:44:19;;;;;;;7.27;5.63;;;17.30;99.90;;;18.21;100.00;98491.38;5051590;28;20480;-78
2022/07/24 03:46:49;;;;;;;8.13;5.43;;;17.20;99.90;;;18.19;100.00;98498.69;5055892;28;20460;-78
2022/07/24 03:49:19;;;;;;;9.17;6.03;;;17.20;99.90;;;18.16;100.00;98488.56;5055030;28;20981;-79
2022/07/24 03:51:50;;;;;;;8.57;5.87;;;17.20;99.90;;;18.10;100.00;98494.75;5057339;28;20530;-78
2022/07/24 03:54:23;;;;;;;10.90;5.63;;;17.10;99.90;;;18.04;100.00;98496.47;5052498;28;20471;-78
2022/07/24 03:56:54;;;;;;;9.10;6.23;;;17.00;99.90;;;18.05;100.00;98498.06;5055529;28;21094;-78
2022/07/24 03:59:24;;;;;;;8.17;5.57;;;17.10;99.90;;;18.03;100.00;98499.34;5055992;28;20523;-78
2022/07/24 04:01:55;;;;;;;11.37;6.33;;;17.10;99.90;;;18.02;100.00;98500.34;5054664;28;20461;-79
2022/07/24 04:04:25;;;;;;;13.33;6.63;;;17.00;99.90;;;17.99;100.00;98508.75;5054247;28;21032;-78
2022/07/24 04:06:56;;;;;;;12.10;5.33;;;17.00;99.90;;;17.98;100.00;98507.13;5056246;28;20975;-78
2022/07/24 04:09:30;;;;;;;8.10;5.10;;;17.00;99.90;;;17.97;100.00;98505.53;5055430;28;20469;-78
2022/07/24 04:12:01;;;;;;;10.70;6.10;;;17.00;99.90;;;17.98;100.00;98502.66;5053257;28;20922;-78
2022/07/24 04:14:30;;;;;;;9.70;6.40;;;17.00;99.90;;;17.92;100.00;98505.38;5054328;28;20468;-80
2022/07/24 04:17:00;;;;;;;11.60;6.40;;;16.90;99.90;;;17.82;100.00;98507.75;5055788;28;20468;-78
2022/07/24 04:19:29;;;;;;;11.43;6.47;;;16.90;99.90;;;17.78;100.00;98507.38;5058261;28;20469;-78
2022/07/24 04:21:59;;;;;;;7.20;5.83;;;16.90;99.90;;;17.80;100.00;98505.34;5058735;28;21023;-78
2022/07/24 04:24:29;;;;;;;8.70;5.63;;;16.90;99.90;;;17.80;100.00;98507.16;5057639;28;20914;-78
2022/07/24 04:26:58;;;;;;;7.43;5.50;;;16.90;99.90;;;17.81;100.00;98509.56;5056664;28;20464;-78
2022/07/24 04:29:29;;;;;;;9.00;5.80;;;16.90;99.90;;;17.80;100.00;98505.34;5057115;28;20456;-78
2022/07/24 04:32:00;;;;;;;9.70;5.83;;;16.80;99.90;;;17.81;100.00;98511.41;5058036;28;25091;-81
2022/07/24 04:34:31;;;;;;;7.70;6.20;;;16.80;99.90;;;17.78;100.00;98506.56;5060221;28;20537;-80
2022/07/24 04:37:05;;;;;;;8.43;6.17;;;16.80;99.90;;;17.74;100.00;98510.66;5057738;28;20472;-78
2022/07/24 04:39:37;;;;;;;10.03;6.13;;;16.80;99.90;;;17.74;100.00;98510.66;5059242;28;20460;-78
2022/07/24 04:42:08;;;;;;;9.50;6.20;;;16.70;99.90;;;17.76;100.00;98514.72;5057951;28;20456;-78
2022/07/24 04:44:40;;;;;;;11.13;5.70;;;16.70;99.90;;;17.81;100.00;98508.75;5060808;28;20499;-78
2022/07/24 04:47:10;;;;;;;8.80;6.30;;;16.70;99.90;;;17.83;100.00;98501.44;5060228;28;21019;-79
2022/07/24 04:49:39;;;;;;;10.93;5.03;;;16.80;99.90;;;17.86;100.00;98501.78;5058709;28;20473;-78
2022/07/24 04:52:15;;;;;;;10.60;5.80;;;16.80;99.90;;;17.86;100.00;98506.28;5056789;28;20473;-78
2022/07/24 04:54:46;;;;;;;9.97;5.93;;;16.80;99.90;;;17.85;100.00;98509.94;5061395;28;20468;-82
2022/07/24 04:57:16;;;;;;;8.97;6.23;;;16.80;99.90;;;17.88;100.00;98501.56;5064115;28;20510;-79
2022/07/24 04:59:48;;;;;;;7.90;5.60;;;16.90;99.90;;;17.93;100.00;98501.72;5057396;28;20460;-79
2022/07/24 05:02:18;;;;;;;6.87;5.77;;;16.90;99.90;;;17.97;100.00;98509.00;5060592;28;21029;-79
2022/07/24 05:04:49;;;;;;;7.50;5.90;;;16.90;99.90;;;18.01;100.00;98507.47;5061940;28;20916;-79
2022/07/24 05:07:23;;;;;;;8.83;5.57;;;17.00;99.90;;;18.03;100.00;98515.22;5061693;28;20461;-79
2022/07/24 05:09:52;;;;;;;6.90;5.13;;;17.00;99.90;;;18.03;100.00;98509.94;5060397;28;20485;-79
2022/07/24 05:12:23;;;;;;;8.53;5.07;;;17.00;99.90;;;18.05;100.00;98513.97;5060988;28;20445;-79
2022/07/24 05:14:53;;;;;;;8.83;6.00;;;17.00;99.90;;;18.10;100.00;98513.28;5059561;28;20456;-79
2022/07/24 05:17:23;;;;;;;7.87;6.00;;;17.00;99.90;;;18.13;100.00;98512.84;5060262;28;21098;-79
2022/07/24 05:19:54;;;;;;;14.10;6.10;;;17.10;99.90;;;18.17;100.00;98505.25;5059855;28;20471;-79
2022/07/24 05:22:28;;;;;;;7.77;5.90;;;17.10;99.90;;;18.21;100.00;98506.44;5060215;28;20451;-79
2022/07/24 05:24:58;;;;;;;7.37;5.80;;;17.10;99.90;;;18.24;100.00;98506.78;5058470;28;20510;-82
2022/07/24 05:27:28;;;;;;;9.50;5.80;;;17.20;99.90;;;18.26;100.00;98510.00;5056456;28;20460;-79
2022/07/24 05:29:59;;;;;;;7.47;5.73;;;17.30;99.90;;;18.31;100.00;98512.00;5058357;28;20458;-78
2022/07/24 05:32:31;;;;;;;7.40;5.23;;;17.30;99.90;;;18.33;100.00;98508.09;5059303;28;20452;-82
2022/07/24 05:35:02;;;;;;;11.80;5.77;;;17.40;99.90;;;18.38;100.00;98510.88;5056473;28;20572;-78
2022/07/24 05:37:33;;;;;;;7.20;5.30;;;17.40;99.90;;;18.42;100.00;98509.41;5058009;28;20728;-78
2022/07/24 05:40:03;;;;;;;7.13;5.00;;;17.40;99.90;;;18.46;100.00;98507.91;5058518;28;20537;-78
2022/07/24 05:42:34;;;;;;;7.03;5.63;;;17.50;99.90;;;18.52;100.00;98507.03;5056537;28;20986;-78
2022/07/24 05:45:07;;;;;;;5.77;5.03;;;17.50;99.90;;;18.55;100.00;98509.22;5062222;28;20504;-78
2022/07/24 05:47:39;;;;;;;7.30;5.77;;;17.60;99.90;;;18.58;100.00;98503.47;5056568;28;20506;-78
2022/07/24 05:50:11;;;;;;;6.37;4.77;;;17.60;99.90;;;18.65;100.00;98502.56;5058418;28;20488;-79
2022/07/24 05:52:43;;;;;;;8.00;5.90;;;17.70;99.90;;;18.67;100.00;98505.81;5058219;28;20475;-79
2022/07/24 05:55:14;;;;;;;8.87;5.60;;;17.70;99.90;;;18.71;100.00;98504.31;5057179;28;20510;-79
2022/07/24 05:57:46;;;;;;;89.53;45.13;;;17.80;99.90;;;18.77;100.00;98498.09;5058599;28;20468;-79
2022/07/24 06:00:18;;;;;;;10.20;7.50;;;17.80;99.90;;;18.82;100.00;98492.91;5057385;28;20461;-79
2022/07/24 06:02:53;;;;;;;7.83;5.90;;;17.80;99.90;;;18.88;100.00;98492.03;5057695;28;20444;-79
2022/07/24 06:05:22;;;;;;;7.50;5.90;;;17.90;99.90;;;18.93;100.00;98489.47;5059139;28;20483;-80
2022/07/24 06:07:55;;;;;;;7.50;5.60;;;17.90;99.90;;;18.99;100.00;98492.00;5058112;28;20825;-79
2022/07/24 06:10:24;;;;;;;6.80;5.37;;;18.00;99.90;;;19.05;100.00;98493.75;5054884;28;20483;-79
2022/07/24 06:12:57;;;;;;;8.20;5.40;;;18.10;99.90;;;19.10;100.00;98493.06;5057535;28;20460;-79
2022/07/24 06:15:28;;;;;;;6.97;5.20;;;18.10;99.90;;;19.16;100.00;98497.44;5057924;28;20476;-79
2022/07/24 06:17:59;;;;;;;6.97;5.20;;;18.20;99.90;;;19.20;100.00;98495.94;5058285;28;20460;-80
2022/07/24 06:20:29;;;;;;;8.80;6.03;;;18.30;99.90;;;19.25;100.00;98496.06;5059763;28;20465;-79
2022/07/24 06:23:02;;;;;;;7.80;5.60;;;18.30;99.90;;;19.29;100.00;98491.91;5057988;28;20468;-79
2022/07/24 06:25:33;;;;;;;9.13;6.77;;;18.30;99.90;;;19.33;100.00;98485.09;5055977;28;20484;-82
2022/07/24 06:28:03;;;;;;;6.90;5.50;;;18.40;99.90;;;19.38;100.00;98487.06;5057548;28;20471;-79
2022/07/24 06:30:36;;;;;;;6.77;4.90;;;18.40;99.90;;;19.42;100.00;98489.03;5060143;28;20507;-79
2022/07/24 06:33:06;;;;;;;7.90;5.50;;;18.50;99.90;;;19.45;100.00;98479.81;5054609;28;20465;-79
2022/07/24 06:35:35;;;;;;;8.93;5.43;;;18.60;99.70;;;19.50;100.00;98482.59;5055917;28;20517;-79
2022/07/24 06:38:06;;;;;;;6.73;5.20;;;18.60;99.80;;;19.55;100.00;98486.13;5055139;28;20536;-80
2022/07/24 06:40:37;;;;;;;6.80;5.00;;;18.60;99.90;;;19.61;100.00;98480.94;5054385;28;21332;-80
2022/07/24 06:43:08;;;;;;;6.70;5.27;;;18.60;99.90;;;19.65;100.00;98477.56;5056561;28;20469;-79
2022/07/24 06:45:40;;;;;;;8.13;5.10;;;18.70;99.90;;;19.70;100.00;98477.69;5055243;28;21018;-79
2022/07/24 06:48:10;;;;;;;6.93;4.70;;;18.80;99.90;;;19.77;100.00;98496.13;5057221;28;20813;-79
2022/07/24 06:50:41;;;;;;;11.30;5.30;;;18.80;99.90;;;19.81;100.00;98481.34;5055433;28;20461;-79
2022/07/24 06:53:13;;;;;;;6.40;4.80;;;18.80;99.90;;;19.84;100.00;98486.19;5054995;28;20459;-80
2022/07/24 06:55:43;;;;;;;6.63;5.20;;;18.90;99.90;;;19.91;100.00;98487.69;5055979;28;20541;-79
2022/07/24 06:58:12;;;;;;;8.90;5.53;;;18.90;99.90;;;19.96;100.00;98486.94;5054544;28;20459;-79
2022/07/24 07:00:42;;;;;;;10.80;5.47;;;19.00;99.90;;;20.01;100.00;98487.88;5054603;28;20592;-79
2022/07/24 07:03:12;;;;;;;7.63;5.37;;;19.10;99.90;;;20.06;100.00;98484.50;5054336;28;20880;-79
2022/07/24 07:05:42;;;;;;;8.93;5.80;;;19.10;99.60;;;20.12;100.00;98478.25;5055821;28;20503;-79
2022/07/24 07:08:14;;;;;;;6.30;4.40;;;19.10;99.60;;;20.17;100.00;98478.31;5054237;28;20545;-79
2022/07/24 07:10:44;;;;;;;8.10;5.30;;;19.20;99.70;;;20.22;100.00;98481.09;5054476;28;20474;-79
2022/07/24 07:13:14;;;;;;;11.27;6.13;;;19.30;99.70;;;20.28;100.00;98480.16;5055694;28;20583;-79
2022/07/24 07:15:44;;;;;;;7.73;4.20;;;19.30;99.40;;;20.33;100.00;98480.25;5056215;28;20538;-80
2022/07/24 07:18:14;;;;;;;9.70;5.10;;;19.40;99.50;;;20.40;100.00;98480.09;5058561;28;20492;-79
2022/07/24 07:20:43;;;;;;;7.37;5.30;;;19.50;99.50;;;20.47;100.00;98480.78;5060919;28;20476;-79
2022/07/24 07:23:15;;;;;;;6.13;4.40;;;19.60;99.40;;;20.53;100.00;98471.81;5058313;28;20468;-81
2022/07/24 07:25:45;;;;;;;7.27;4.50;;;19.60;99.00;;;20.58;100.00;98474.59;5059654;28;20480;-80
2022/07/24 07:28:16;;;;;;;5.63;4.30;;;19.70;99.00;;;20.65;100.00;98483.22;5065362;28;20517;-79
2022/07/24 07:30:45;;;;;;;6.50;4.63;;;19.80;98.80;;;20.71;100.00;98476.13;5067077;28;20541;-79
2022/07/24 07:33:15;;;;;;;8.50;4.10;;;19.80;98.70;;;20.77;100.00;98481.28;5061132;28;20587;-80
2022/07/24 07:35:44;;;;;;;5.93;3.97;;;19.90;98.40;;;20.84;100.00;98487.22;5061411;28;20958;-79
2022/07/24 07:38:15;;;;;;;11.93;4.43;;;20.00;98.40;;;20.90;100.00;98475.63;5062085;28;20447;-80
2022/07/24 07:40:52;;;;;;;6.70;4.10;;;20.10;98.20;;;20.95;100.00;98478.38;5056368;28;20480;-80
2022/07/24 07:43:21;;;;;;;7.37;5.13;;;20.10;98.30;;;21.01;99.38;98477.41;5056005;28;20460;-79
2022/07/24 07:45:52;;;;;;;5.63;3.83;;;20.20;98.10;;;21.07;97.87;98480.91;5053947;28;21043;-79
2022/07/24 07:48:22;;;;;;;6.30;3.23;;;20.20;97.90;;;21.14;96.97;98480.81;5056808;28;20457;-79
2022/07/24 07:50:51;;;;;;;5.27;3.43;;;20.40;97.70;;;21.20;95.68;98475.31;5055853;28;20469;-80
2022/07/24 07:53:23;;;;;;;4.90;3.83;;;20.40;97.60;;;21.28;94.88;98477.53;5056236;28;21125;-80
2022/07/24 07:55:53;;;;;;;5.50;4.20;;;20.50;97.60;;;21.34;93.47;98470.44;5058114;28;20479;-79
2022/07/24 07:58:23;;;;;;;4.60;3.57;;;20.70;97.30;;;21.41;93.76;98477.22;5057195;28;20491;-79
2022/07/24 08:00:52;;;;;;;7.63;4.17;;;20.70;97.40;;;21.49;93.67;98467.97;5061584;28;20544;-82
2022/07/24 08:03:20;;;;;;;36.53;20.87;;;20.70;97.30;;;21.57;93.49;98470.22;5063769;28;20460;-79
2022/07/24 08:05:51;;;;;;;11.70;5.60;;;20.80;97.50;;;21.65;93.01;98466.31;5066876;28;20516;-79
2022/07/24 08:08:29;;;;;;;8.53;4.60;;;20.90;97.10;;;21.71;92.49;98466.13;5061656;28;20468;-79
2022/07/24 08:10:58;;;;;;;7.90;4.30;;;21.10;97.00;;;21.78;92.02;98460.63;5066989;28;20455;-80
2022/07/24 08:13:27;;;;;;;3.90;3.50;;;21.10;97.00;;;21.86;91.28;98465.50;5056922;28;20461;-80
2022/07/24 08:15:56;;;;;;;5.17;3.77;;;21.20;96.90;;;21.94;90.90;98465.91;5059257;28;20537;-80
2022/07/24 08:18:26;;;;;;;5.03;4.50;;;21.30;96.90;;;22.01;90.60;98463.84;5056345;28;20951;-79
2022/07/24 08:20:56;;;;;;;7.63;5.10;;;21.40;96.80;;;22.09;90.37;98473.25;5057019;28;21063;-80
2022/07/24 08:23:27;;;;;;;8.90;3.67;;;21.40;96.80;;;22.16;88.73;98465.06;5058185;28;20485;-79
2022/07/24 08:25:57;;;;;;;7.20;4.00;;;21.50;96.40;;;22.25;88.54;98455.56;5057215;28;20903;-79
2022/07/24 08:28:26;;;;;;;8.20;4.40;;;21.60;96.50;;;22.30;88.25;98459.09;5058073;28;20830;-80
2022/07/24 08:30:56;;;;;;;4.60;3.80;;;21.60;96.20;;;22.36;87.00;98460.72;5057325;28;20518;-79
2022/07/24 08:33:26;;;;;;;6.10;4.10;;;21.70;96.20;;;22.43;86.47;98452.53;5058612;28;20453;-80
2022/07/24 08:35:57;;;;;;;10.07;3.93;;;21.80;96.00;;;22.50;85.63;98453.94;5059624;28;20464;-80
2022/07/24 08:38:28;;;;;;;5.50;4.10;;;21.90;95.40;;;22.56;85.25;98455.56;5058009;28;20494;-80
2022/07/24 08:41:00;;;;;;;5.20;4.00;;;21.90;95.80;;;22.62;83.94;98452.97;5060548;28;20456;-80
2022/07/24 08:43:30;;;;;;;46.80;31.73;;;22.00;95.40;;;22.68;83.64;98444.78;5057837;28;20540;-83
2022/07/24 08:46:03;;;;;;;26.23;15.50;;;22.00;94.90;;;22.72;81.73;98448.56;5057183;28;21129;-79
2022/07/24 08:48:35;;;;;;;4.90;4.13;;;22.00;94.90;;;22.76;80.62;98435.50;5062481;28;20516;-80
2022/07/24 08:51:05;;;;;;;8.90;4.80;;;22.10;94.60;;;22.82;79.66;98443.28;5057995;28;20464;-79
2022/07/24 08:53:37;;;;;;;7.03;3.70;;;22.10;94.30;;;22.89;77.52;98438.53;5058738;28;20544;-80
2022/07/24 08:56:07;;;;;;;6.40;3.70;;;22.20;93.90;;;22.96;78.40;98440.97;5060524;28;21013;-80
2022/07/24 08:58:40;;;;;;;4.90;4.00;;;22.30;94.10;;;23.02;77.45;98434.59;5060095;28;20453;-80
2022/07/24 09:01:10;;;;;;;8.13;3.63;;;22.30;94.20;;;23.06;77.47;98435.72;5055807;28;20463;-80
2022/07/24 09:03:41;;;;;;;5.33;3.80;;;22.40;94.10;;;23.12;77.12;98426.66;5057711;28;20519;-80
2022/07/24 09:06:14;;;;;;;6.07;3.90;;;22.40;93.80;;;23.17;77.22;98425.91;5055701;28;21049;-79
2022/07/24 09:09:02;;;;;;;5.73;4.27;;;22.50;94.10;;;23.22;76.66;98424.03;5056416;28;20480;-80
2022/07/24 09:11:37;;;;;;;4.97;3.83;;;22.60;93.70;;;23.29;75.78;98424.63;5057787;28;20473;-80
2022/07/24 09:17:02;;;;;;;12.10;9.40;;;22.70;93.50;;;23.43;74.03;98423.13;5062505;28;20483;-93
2022/07/24 09:19:52;;;;;;;70.57;39.13;;;22.80;93.40;;;23.51;74.61;98427.97;5059964;28;20463;-80
2022/07/24 09:22:35;;;;;;;8.93;5.90;;;22.80;93.50;;;23.57;74.37;98425.34;5057587;28;20465;-80
2022/07/24 09:25:14;;;;;;;7.23;3.97;;;22.90;93.40;;;23.63;72.90;98422.41;5057641;28;20465;-80
2022/07/24 09:27:50;;;;;;;5.10;4.37;;;23.00;92.90;;;23.69;71.82;98416.03;5056417;28;20498;-80
2022/07/24 09:30:31;;;;;;;9.47;4.27;;;23.10;92.90;;;23.76;70.82;98415.78;5059585;28;20525;-80
2022/07/24 09:33:03;;;;;;;6.50;4.07;;;23.20;92.60;;;23.86;71.06;98415.81;5056879;28;20488;-80
2022/07/24 09:35:37;;;;;;;6.47;4.33;;;23.30;92.70;;;23.92;69.85;98414.75;5058453;28;20517;-80
2022/07/24 09:38:09;;;;;;;6.07;4.07;;;23.30;92.50;;;23.98;67.89;98406.47;5058452;28;20499;-80
2022/07/24 09:40:43;;;;;;;9.00;4.07;;;23.50;91.90;;;24.07;65.92;98409.44;5056222;28;20541;-79
2022/07/24 09:43:23;;;;;;;5.83;2.87;;;23.60;91.40;;;24.14;64.10;98402.00;5053801;28;20476;-80
2022/07/24 09:45:59;;;;;;;5.40;3.93;;;23.70;90.90;;;24.22;65.26;98401.47;5060336;28;20512;-80
2022/07/24 09:48:32;;;;;;;43.50;26.93;;;23.60;91.30;;;24.28;64.46;98405.75;5056653;28;20468;-80
2022/07/24 09:51:06;;;;;;;6.63;4.20;;;23.60;90.80;;;24.32;63.57;98412.19;5056587;28;20496;-80
2022/07/24 09:53:40;;;;;;;6.83;4.60;;;23.70;91.20;;;24.34;61.12;98403.88;5055879;28;20546;-80
2022/07/24 09:56:15;;;;;;;5.20;3.10;;;23.70;88.20;;;24.36;58.57;98405.22;5060511;28;20482;-80
2022/07/24 09:58:52;;;;;;;4.60;3.60;;;23.70;88.30;;;24.41;58.22;98407.91;5059718;28;21057;-81
2022/07/24 10:01:27;;;;;;;5.37;3.20;;;23.80;89.10;;;24.50;58.33;98405.50;5060619;28;20461;-81
2022/07/24 10:04:00;;;;;;;4.20;3.43;;;23.80;89.10;;;24.56;57.01;98401.75;5060158;28;20465;-80
2022/07/24 10:06:32;;;;;;;5.67;4.13;;;23.80;87.90;;;24.61;56.46;98399.06;5059938;28;20477;-80
2022/07/24 10:09:05;;;;;;;4.10;3.33;;;24.00;88.10;;;24.67;55.50;98397.19;5060231;28;20461;-80
2022/07/24 10:11:42;;;;;;;3.30;3.00;;;24.20;87.10;;;24.76;55.04;98390.22;5059156;28;20448;-80
2022/07/24 10:14:13;;;;;;;3.80;2.90;;;24.20;87.20;;;24.82;54.20;98389.13;5059085;28;20452;-81
2022/07/24 10:16:54;;;;;;;3.77;3.20;;;24.20;86.40;;;24.88;54.84;98391.59;5058457;28;21000;-80
2022/07/24 10:19:45;;;;;;;5.23;3.93;;;24.30;87.00;;;24.91;55.07;98385.69;5061302;28;20459;-80
2022/07/24 10:22:18;;;;;;;6.20;3.83;;;24.20;87.40;;;24.98;55.67;98382.72;5059460;28;20449;-80
2022/07/24 10:25:06;;;;;;;5.13;4.03;;;24.30;87.70;;;25.02;55.04;98383.78;5059534;28;20444;-80
2022/07/24 10:27:39;;;;;;;127.10;89.23;;;24.40;86.90;;;25.08;55.46;98388.03;5058279;28;21056;-80
2022/07/24 10:30:12;;;;;;;8.73;7.30;;;24.40;87.00;;;25.15;54.23;98383.22;5058635;28;21286;-80
2022/07/24 10:32:43;;;;;;;4.83;3.73;;;24.60;86.20;;;25.20;54.53;98377.03;5059899;28;20456;-80